sensor_id;sensor_type;location;lat;lon;timestamp;pressure;altitude;pressure_sealevel;temperature;humidity
19520;BME280;9904;52.246;20.898;2023-11-19T00:02:12;100801.94;;;-0.91;100.00
19520;BME280;9904;52.246;20.898;2023-11-19T00:04:39;100788.50;;;-0.88;100.00
19520;BME280;9904;52.246;20.898;2023-11-19T00:07:06;100807.63;;;-0.80;100.00
19520;BME280;9904;52.246;20.898;2023-11-19T00:09:34;100799.03;;;-0.86;100.00
19520;BME280;9904;52.246;20.898;2023-11-19T00:12:04;100807.38;;;-0.73;100.00
19520;BME280;9904;52.246;20.898;2023-11-19T00:14:31;100815.34;;;-0.73;100.00
19520;BME280;9904;52.246;20.898;2023-11-19T00:16:58;100811.75;;;-0.72;100.00
19520;BME280;9904;52.246;20.898;2023-11-19T00:19:25;100814.22;;;-0.68;100.00
19520;BME280;9904;52.246;20.898;2023-11-19T00:21:52;100804.59;;;-0.70;100.00
19520;BME280;9904;52.246;20.898;2023-11-19T00:24:19;100800.00;;;-0.67;100.00
19520;BME280;9904;52.246;20.898;2023-11-19T00:26:47;100794.06;;;-0.94;100.00
19520;BME280;9904;52.246;20.898;2023-11-19T00:29:13;100789.06;;;-1.02;100.00
19520;BME280;9904;52.246;20.898;2023-11-19T00:31:40;100790.22;;;-0.87;100.00
19520;BME280;9904;52.246;20.898;2023-11-19T00:34:06;100792.69;;;-0.82;100.00
19520;BME280;9904;52.246;20.898;2023-11-19T00:36:33;100779.31;;;-0.81;100.00
19520;BME280;9904;52.246;20.898;2023-11-19T00:39:00;100771.88;;;-0.72;100.00
19520;BME280;9904;52.246;20.898;2023-11-19T00:41:27;100771.03;;;-0.73;100.00
19520;BME280;9904;52.246;20.898;2023-11-19T00:43:53;100769.97;;;-0.69;100.00
19520;BME280;9904;52.246;20.898;2023-11-19T00:46:20;100770.59;;;-0.64;100.00
19520;BME280;9904;52.246;20.898;2023-11-19T00:48:47;100764.72;;;-0.70;100.00
19520;BME280;9904;52.246;20.898;2023-11-19T00:51:13;100761.78;;;-0.64;100.00
19520;BME280;9904;52.246;20.898;2023-11-19T00:53:40;100754.72;;;-0.65;100.00
19520;BME280;9904;52.246;20.898;2023-11-19T00:56:07;100746.97;;;-0.70;100.00
19520;BME280;9904;52.246;20.898;2023-11-19T00:58:34;100746.69;;;-0.64;100.00
19520;BME280;9904;52.246;20.898;2023-11-19T01:01:00;100736.44;;;-0.52;100.00
19520;BME280;9904;52.246;20.898;2023-11-19T01:03:27;100728.06;;;-0.64;100.00
19520;BME280;9904;52.246;20.898;2023-11-19T01:05:54;100731.28;;;-0.76;100.00
19520;BME280;9904;52.246;20.898;2023-11-19T01:08:20;100728.53;;;-0.74;100.00
19520;BME280;9904;52.246;20.898;2023-11-19T01:10:47;100719.25;;;-0.64;100.00
19520;BME280;9904;52.246;20.898;2023-11-19T01:13:14;100720.25;;;-0.67;100.00
19520;BME280;9904;52.246;20.898;2023-11-19T01:15:40;100714.16;;;-0.89;100.00
19520;BME280;9904;52.246;20.898;2023-11-19T01:18:08;100714.00;;;-0.86;100.00
19520;BME280;9904;52.246;20.898;2023-11-19T01:20:36;100699.25;;;-0.73;100.00
19520;BME280;9904;52.246;20.898;2023-11-19T01:23:03;100696.81;;;-0.77;100.00
19520;BME280;9904;52.246;20.898;2023-11-19T01:25:30;100697.44;;;-0.72;100.00
19520;BME280;9904;52.246;20.898;2023-11-19T01:27:57;100700.84;;;-0.69;100.00
19520;BME280;9904;52.246;20.898;2023-11-19T01:30:25;100703.56;;;-0.70;100.00
19520;BME280;9904;52.246;20.898;2023-11-19T01:32:52;100705.50;;;-0.74;100.00
19520;BME280;9904;52.246;20.898;2023-11-19T01:35:19;100699.97;;;-0.69;100.00
19520;BME280;9904;52.246;20.898;2023-11-19T01:37:45;100703.88;;;-0.57;100.00
19520;BME280;9904;52.246;20.898;2023-11-19T01:40:12;100708.25;;;-0.56;100.00
19520;BME280;9904;52.246;20.898;2023-11-19T01:42:40;100700.50;;;-0.61;100.00
19520;BME280;9904;52.246;20.898;2023-11-19T01:45:07;100691.13;;;-0.70;100.00
19520;BME280;9904;52.246;20.898;2023-11-19T01:47:36;100689.28;;;-0.68;100.00
19520;BME280;9904;52.246;20.898;2023-11-19T01:50:06;100679.63;;;-0.70;100.00
19520;BME280;9904;52.246;20.898;2023-11-19T01:52:36;100670.66;;;-0.68;100.00
19520;BME280;9904;52.246;20.898;2023-11-19T01:55:04;100666.34;;;-0.70;100.00
19520;BME280;9904;52.246;20.898;2023-11-19T01:57:33;100668.13;;;-0.71;100.00
19520;BME280;9904;52.246;20.898;2023-11-19T01:59:59;100665.34;;;-0.68;100.00
19520;BME280;9904;52.246;20.898;2023-11-19T02:02:26;100660.94;;;-0.69;100.00
19520;BME280;9904;52.246;20.898;2023-11-19T02:04:53;100653.53;;;-0.81;100.00
19520;BME280;9904;52.246;20.898;2023-11-19T02:07:19;100658.91;;;-0.83;100.00
19520;BME280;9904;52.246;20.898;2023-11-19T02:09:47;100651.81;;;-0.82;100.00
19520;BME280;9904;52.246;20.898;2023-11-19T02:12:13;100655.91;;;-0.75;100.00
19520;BME280;9904;52.246;20.898;2023-11-19T02:14:40;100655.44;;;-0.64;100.00
19520;BME280;9904;52.246;20.898;2023-11-19T02:17:08;100645.66;;;-0.64;100.00
19520;BME280;9904;52.246;20.898;2023-11-19T02:19:51;100643.66;;;-0.58;100.00
19520;BME280;9904;52.246;20.898;2023-11-19T02:22:17;100639.69;;;-0.50;100.00
19520;BME280;9904;52.246;20.898;2023-11-19T02:24:45;100637.03;;;-0.50;100.00
19520;BME280;9904;52.246;20.898;2023-11-19T02:27:22;100634.16;;;-0.45;100.00
19520;BME280;9904;52.246;20.898;2023-11-19T02:29:52;100632.22;;;-0.41;100.00
19520;BME280;9904;52.246;20.898;2023-11-19T02:32:20;100634.16;;;-0.45;100.00
19520;BME280;9904;52.246;20.898;2023-11-19T02:34:46;100620.28;;;-0.52;100.00
19520;BME280;9904;52.246;20.898;2023-11-19T02:37:13;100621.09;;;-0.50;100.00
19520;BME280;9904;52.246;20.898;2023-11-19T02:39:41;100621.50;;;-0.40;100.00
19520;BME280;9904;52.246;20.898;2023-11-19T02:42:08;100616.41;;;-0.44;100.00
19520;BME280;9904;52.246;20.898;2023-11-19T02:44:34;100634.03;;;-0.42;100.00
19520;BME280;9904;52.246;20.898;2023-11-19T02:47:01;100623.88;;;-0.53;100.00
19520;BME280;9904;52.246;20.898;2023-11-19T02:49:29;100617.28;;;-0.25;100.00
19520;BME280;9904;52.246;20.898;2023-11-19T02:51:56;100603.09;;;-0.25;100.00
19520;BME280;9904;52.246;20.898;2023-11-19T02:54:22;100596.22;;;-0.49;100.00
19520;BME280;9904;52.246;20.898;2023-11-19T02:56:53;100590.31;;;-0.36;100.00
19520;BME280;9904;52.246;20.898;2023-11-19T02:59:26;100585.59;;;-0.49;100.00
19520;BME280;9904;52.246;20.898;2023-11-19T03:02:05;100584.34;;;-0.41;100.00
19520;BME280;9904;52.246;20.898;2023-11-19T03:04:33;100572.91;;;-0.43;100.00
19520;BME280;9904;52.246;20.898;2023-11-19T03:07:00;100579.63;;;-0.35;100.00
19520;BME280;9904;52.246;20.898;2023-11-19T03:09:27;100567.66;;;-0.26;100.00
19520;BME280;9904;52.246;20.898;2023-11-19T03:11:55;100566.03;;;-0.11;100.00
19520;BME280;9904;52.246;20.898;2023-11-19T03:14:22;100562.19;;;-0.05;100.00
19520;BME280;9904;52.246;20.898;2023-11-19T03:16:50;100553.03;;;-0.17;100.00
19520;BME280;9904;52.246;20.898;2023-11-19T03:19:17;100550.59;;;-0.22;100.00
19520;BME280;9904;52.246;20.898;2023-11-19T03:21:47;100545.88;;;-0.34;100.00
19520;BME280;9904;52.246;20.898;2023-11-19T03:24:15;100543.31;;;-0.36;100.00
19520;BME280;9904;52.246;20.898;2023-11-19T03:26:42;100533.72;;;-0.40;100.00
19520;BME280;9904;52.246;20.898;2023-11-19T03:29:09;100541.06;;;-0.26;100.00
19520;BME280;9904;52.246;20.898;2023-11-19T03:31:35;100540.91;;;-0.05;100.00
19520;BME280;9904;52.246;20.898;2023-11-19T03:34:02;100536.47;;;-0.05;100.00
19520;BME280;9904;52.246;20.898;2023-11-19T03:36:32;100543.75;;;-0.08;100.00
19520;BME280;9904;52.246;20.898;2023-11-19T03:39:00;100526.16;;;-0.30;100.00
19520;BME280;9904;52.246;20.898;2023-11-19T03:41:26;100523.63;;;-0.51;100.00
19520;BME280;9904;52.246;20.898;2023-11-19T03:43:53;100517.56;;;-0.35;100.00
19520;BME280;9904;52.246;20.898;2023-11-19T03:46:20;100521.94;;;-0.34;100.00
19520;BME280;9904;52.246;20.898;2023-11-19T03:48:50;100514.19;;;-0.39;100.00
19520;BME280;9904;52.246;20.898;2023-11-19T03:51:17;100518.97;;;-0.45;100.00
19520;BME280;9904;52.246;20.898;2023-11-19T03:53:44;100513.16;;;-0.54;100.00
19520;BME280;9904;52.246;20.898;2023-11-19T03:56:12;100507.16;;;-0.59;100.00
19520;BME280;9904;52.246;20.898;2023-11-19T03:58:39;100498.66;;;-0.66;100.00
19520;BME280;9904;52.246;20.898;2023-11-19T04:01:05;100495.59;;;-0.58;100.00
19520;BME280;9904;52.246;20.898;2023-11-19T04:03:32;100499.94;;;-0.38;100.00
19520;BME280;9904;52.246;20.898;2023-11-19T04:05:59;100492.53;;;-0.31;100.00
19520;BME280;9904;52.246;20.898;2023-11-19T04:08:26;100487.91;;;-0.10;100.00
19520;BME280;9904;52.246;20.898;2023-11-19T04:10:52;100478.75;;;-0.22;100.00
19520;BME280;9904;52.246;20.898;2023-11-19T04:13:19;100473.50;;;-0.41;100.00
19520;BME280;9904;52.246;20.898;2023-11-19T04:15:46;100462.53;;;-0.52;100.00
19520;BME280;9904;52.246;20.898;2023-11-19T04:18:12;100462.75;;;-0.57;100.00
19520;BME280;9904;52.246;20.898;2023-11-19T04:20:39;100459.78;;;-0.68;100.00
19520;BME280;9904;52.246;20.898;2023-11-19T04:23:08;100457.34;;;-0.73;100.00
19520;BME280;9904;52.246;20.898;2023-11-19T04:25:35;100458.88;;;-0.50;100.00
19520;BME280;9904;52.246;20.898;2023-11-19T04:28:02;100453.16;;;-0.59;100.00
19520;BME280;9904;52.246;20.898;2023-11-19T04:30:28;100436.75;;;-0.50;100.00
19520;BME280;9904;52.246;20.898;2023-11-19T04:32:55;100442.38;;;-0.39;100.00
19520;BME280;9904;52.246;20.898;2023-11-19T04:35:22;100438.63;;;-0.52;100.00
19520;BME280;9904;52.246;20.898;2023-11-19T04:37:49;100435.06;;;-0.53;100.00
19520;BME280;9904;52.246;20.898;2023-11-19T04:40:16;100438.22;;;-0.44;100.00
19520;BME280;9904;52.246;20.898;2023-11-19T04:42:44;100440.97;;;-0.28;100.00
19520;BME280;9904;52.246;20.898;2023-11-19T04:45:11;100427.22;;;-0.19;100.00
19520;BME280;9904;52.246;20.898;2023-11-19T04:47:38;100427.75;;;-0.12;100.00
19520;BME280;9904;52.246;20.898;2023-11-19T04:50:05;100430.41;;;-0.30;100.00
19520;BME280;9904;52.246;20.898;2023-11-19T04:52:32;100416.78;;;-0.41;100.00
19520;BME280;9904;52.246;20.898;2023-11-19T04:54:58;100424.38;;;-0.34;100.00
19520;BME280;9904;52.246;20.898;2023-11-19T04:57:25;100421.34;;;-0.26;100.00
19520;BME280;9904;52.246;20.898;2023-11-19T04:59:52;100424.22;;;-0.30;100.00
19520;BME280;9904;52.246;20.898;2023-11-19T05:02:18;100416.03;;;-0.26;100.00
19520;BME280;9904;52.246;20.898;2023-11-19T05:04:45;100417.19;;;-0.32;100.00
19520;BME280;9904;52.246;20.898;2023-11-19T05:07:13;100408.28;;;-0.30;100.00
19520;BME280;9904;52.246;20.898;2023-11-19T05:09:40;100406.53;;;-0.49;100.00
19520;BME280;9904;52.246;20.898;2023-11-19T05:12:07;100392.78;;;-0.57;100.00
19520;BME280;9904;52.246;20.898;2023-11-19T05:14:38;100394.66;;;-0.42;100.00
19520;BME280;9904;52.246;20.898;2023-11-19T05:17:05;100397.84;;;-0.35;100.00
19520;BME280;9904;52.246;20.898;2023-11-19T05:19:31;100386.13;;;-0.31;100.00
19520;BME280;9904;52.246;20.898;2023-11-19T05:21:58;100388.53;;;-0.26;100.00
19520;BME280;9904;52.246;20.898;2023-11-19T05:24:25;100390.19;;;-0.41;100.00
19520;BME280;9904;52.246;20.898;2023-11-19T05:26:51;100376.53;;;-0.51;100.00
19520;BME280;9904;52.246;20.898;2023-11-19T05:29:18;100383.16;;;-0.42;100.00
19520;BME280;9904;52.246;20.898;2023-11-19T05:31:45;100378.00;;;-0.45;100.00
19520;BME280;9904;52.246;20.898;2023-11-19T05:34:11;100369.00;;;-0.43;100.00
19520;BME280;9904;52.246;20.898;2023-11-19T05:36:41;100378.72;;;-0.42;100.00
19520;BME280;9904;52.246;20.898;2023-11-19T05:39:07;100380.13;;;-0.35;100.00
19520;BME280;9904;52.246;20.898;2023-11-19T05:41:34;100362.06;;;-0.45;100.00
19520;BME280;9904;52.246;20.898;2023-11-19T05:44:01;100367.25;;;-0.26;100.00
19520;BME280;9904;52.246;20.898;2023-11-19T05:46:28;100373.44;;;-0.26;100.00
19520;BME280;9904;52.246;20.898;2023-11-19T05:48:55;100364.69;;;-0.28;100.00
19520;BME280;9904;52.246;20.898;2023-11-19T05:51:22;100355.38;;;-0.37;100.00
19520;BME280;9904;52.246;20.898;2023-11-19T05:53:50;100356.88;;;-0.49;100.00
19520;BME280;9904;52.246;20.898;2023-11-19T05:56:17;100363.59;;;-0.59;100.00
19520;BME280;9904;52.246;20.898;2023-11-19T05:58:48;100361.03;;;-0.43;100.00
19520;BME280;9904;52.246;20.898;2023-11-19T06:01:15;100365.66;;;-0.46;100.00
19520;BME280;9904;52.246;20.898;2023-11-19T06:03:43;100363.13;;;-0.50;100.00
19520;BME280;9904;52.246;20.898;2023-11-19T06:06:10;100361.31;;;-0.49;100.00
19520;BME280;9904;52.246;20.898;2023-11-19T06:08:37;100353.91;;;-0.42;100.00
19520;BME280;9904;52.246;20.898;2023-11-19T06:11:04;100360.00;;;-0.58;100.00
19520;BME280;9904;52.246;20.898;2023-11-19T06:13:31;100362.75;;;-0.42;100.00
19520;BME280;9904;52.246;20.898;2023-11-19T06:15:58;100361.66;;;-0.38;100.00
19520;BME280;9904;52.246;20.898;2023-11-19T06:18:25;100357.97;;;-0.35;100.00
19520;BME280;9904;52.246;20.898;2023-11-19T06:20:52;100348.91;;;-0.49;100.00
19520;BME280;9904;52.246;20.898;2023-11-19T06:23:19;100348.34;;;-0.38;100.00
19520;BME280;9904;52.246;20.898;2023-11-19T06:25:45;100339.25;;;-0.34;100.00
19520;BME280;9904;52.246;20.898;2023-11-19T06:28:12;100335.38;;;-0.44;100.00
19520;BME280;9904;52.246;20.898;2023-11-19T06:30:39;100335.59;;;-0.49;100.00
19520;BME280;9904;52.246;20.898;2023-11-19T06:33:07;100338.50;;;-0.53;100.00
19520;BME280;9904;52.246;20.898;2023-11-19T06:35:34;100325.13;;;-0.52;100.00
19520;BME280;9904;52.246;20.898;2023-11-19T06:38:03;100323.94;;;-0.64;100.00
19520;BME280;9904;52.246;20.898;2023-11-19T06:40:33;100317.63;;;-0.61;100.00
19520;BME280;9904;52.246;20.898;2023-11-19T06:43:01;100311.91;;;-0.53;100.00
19520;BME280;9904;52.246;20.898;2023-11-19T06:45:35;100311.69;;;-0.66;100.00
19520;BME280;9904;52.246;20.898;2023-11-19T06:48:03;100317.94;;;-0.67;100.00
19520;BME280;9904;52.246;20.898;2023-11-19T06:50:32;100306.59;;;-0.53;100.00
19520;BME280;9904;52.246;20.898;2023-11-19T06:52:58;100296.75;;;-0.51;100.00
19520;BME280;9904;52.246;20.898;2023-11-19T06:55:26;100306.50;;;-0.52;100.00
19520;BME280;9904;52.246;20.898;2023-11-19T06:57:53;100292.13;;;-0.47;100.00
19520;BME280;9904;52.246;20.898;2023-11-19T07:00:19;100295.72;;;-0.66;100.00
19520;BME280;9904;52.246;20.898;2023-11-19T07:02:46;100286.72;;;-0.64;100.00
19520;BME280;9904;52.246;20.898;2023-11-19T07:05:13;100282.66;;;-0.71;100.00
19520;BME280;9904;52.246;20.898;2023-11-19T07:07:40;100283.63;;;-0.72;100.00
19520;BME280;9904;52.246;20.898;2023-11-19T07:10:07;100278.38;;;-0.73;100.00
19520;BME280;9904;52.246;20.898;2023-11-19T07:12:36;100281.19;;;-0.59;100.00
19520;BME280;9904;52.246;20.898;2023-11-19T07:15:03;100272.72;;;-0.50;100.00
19520;BME280;9904;52.246;20.898;2023-11-19T07:17:31;100278.19;;;-0.53;100.00
19520;BME280;9904;52.246;20.898;2023-11-19T07:19:58;100270.88;;;-0.65;100.00
19520;BME280;9904;52.246;20.898;2023-11-19T07:22:26;100279.22;;;-0.55;100.00
19520;BME280;9904;52.246;20.898;2023-11-19T07:24:56;100275.94;;;-0.60;100.00
19520;BME280;9904;52.246;20.898;2023-11-19T07:27:22;100277.13;;;-0.66;100.00
19520;BME280;9904;52.246;20.898;2023-11-19T07:29:51;100274.78;;;-0.55;100.00
19520;BME280;9904;52.246;20.898;2023-11-19T07:32:18;100261.88;;;-0.62;100.00
19520;BME280;9904;52.246;20.898;2023-11-19T07:34:45;100266.81;;;-0.55;99.05
19520;BME280;9904;52.246;20.898;2023-11-19T07:37:12;100260.09;;;-0.62;99.51
19520;BME280;9904;52.246;20.898;2023-11-19T07:39:38;100242.69;;;-0.52;98.84
19520;BME280;9904;52.246;20.898;2023-11-19T07:42:08;100242.78;;;-0.53;97.75
19520;BME280;9904;52.246;20.898;2023-11-19T07:44:36;100242.19;;;-0.42;97.17
19520;BME280;9904;52.246;20.898;2023-11-19T07:47:03;100241.38;;;-0.60;98.28
19520;BME280;9904;52.246;20.898;2023-11-19T07:49:31;100231.44;;;-0.57;98.73
19520;BME280;9904;52.246;20.898;2023-11-19T07:51:58;100230.88;;;-0.46;98.67
19520;BME280;9904;52.246;20.898;2023-11-19T07:54:26;100220.13;;;-0.44;98.37
19520;BME280;9904;52.246;20.898;2023-11-19T07:56:53;100211.31;;;-0.45;98.28
19520;BME280;9904;52.246;20.898;2023-11-19T07:59:20;100222.22;;;-0.34;96.98
19520;BME280;9904;52.246;20.898;2023-11-19T08:01:47;100215.97;;;-0.33;97.19
19520;BME280;9904;52.246;20.898;2023-11-19T08:04:14;100219.41;;;-0.30;96.56
19520;BME280;9904;52.246;20.898;2023-11-19T08:06:42;100210.38;;;-0.44;97.93
19520;BME280;9904;52.246;20.898;2023-11-19T08:09:08;100202.91;;;-0.37;98.11
19520;BME280;9904;52.246;20.898;2023-11-19T08:11:41;100207.28;;;-0.36;97.71
19520;BME280;9904;52.246;20.898;2023-11-19T08:14:09;100212.81;;;-0.23;97.13
19520;BME280;9904;52.246;20.898;2023-11-19T08:16:35;100208.78;;;-0.14;96.78
19520;BME280;9904;52.246;20.898;2023-11-19T08:19:04;100199.41;;;-0.38;97.26
19520;BME280;9904;52.246;20.898;2023-11-19T08:21:31;100198.81;;;-0.27;97.25
19520;BME280;9904;52.246;20.898;2023-11-19T08:23:57;100187.94;;;-0.38;98.21
19520;BME280;9904;52.246;20.898;2023-11-19T08:26:24;100174.09;;;-0.45;99.02
19520;BME280;9904;52.246;20.898;2023-11-19T08:28:51;100174.09;;;-0.29;98.44
19520;BME280;9904;52.246;20.898;2023-11-19T08:31:18;100174.09;;;-0.29;98.55
19520;BME280;9904;52.246;20.898;2023-11-19T08:33:45;100179.25;;;-0.26;98.12
19520;BME280;9904;52.246;20.898;2023-11-19T08:36:17;100175.31;;;-0.03;96.94
19520;BME280;9904;52.246;20.898;2023-11-19T08:38:44;100182.34;;;-0.02;97.65
19520;BME280;9904;52.246;20.898;2023-11-19T08:41:12;100173.50;;;0.14;97.12
19520;BME280;9904;52.246;20.898;2023-11-19T08:43:38;100171.44;;;0.03;96.46
19520;BME280;9904;52.246;20.898;2023-11-19T08:46:10;100172.06;;;-0.08;97.10
19520;BME280;9904;52.246;20.898;2023-11-19T08:48:38;100172.91;;;-0.07;97.70
19520;BME280;9904;52.246;20.898;2023-11-19T08:51:05;100173.19;;;-0.12;97.98
19520;BME280;9904;52.246;20.898;2023-11-19T08:53:31;100166.75;;;-0.08;98.16
19520;BME280;9904;52.246;20.898;2023-11-19T08:55:58;100158.41;;;-0.02;98.21
19520;BME280;9904;52.246;20.898;2023-11-19T08:58:25;100159.69;;;0.23;96.98
19520;BME280;9904;52.246;20.898;2023-11-19T09:00:51;100153.84;;;0.33;95.88
19520;BME280;9904;52.246;20.898;2023-11-19T09:03:18;100148.16;;;0.39;96.86
19520;BME280;9904;52.246;20.898;2023-11-19T09:05:45;100139.56;;;0.34;95.81
19520;BME280;9904;52.246;20.898;2023-11-19T09:08:12;100140.59;;;0.31;95.33
19520;BME280;9904;52.246;20.898;2023-11-19T09:10:39;100133.06;;;0.23;95.70
19520;BME280;9904;52.246;20.898;2023-11-19T09:13:06;100116.97;;;0.25;95.56
19520;BME280;9904;52.246;20.898;2023-11-19T09:15:33;100112.84;;;0.35;95.91
19520;BME280;9904;52.246;20.898;2023-11-19T09:18:00;100107.25;;;0.40;96.13
19520;BME280;9904;52.246;20.898;2023-11-19T09:20:27;100098.38;;;0.70;95.09
19520;BME280;9904;52.246;20.898;2023-11-19T09:22:54;100095.69;;;0.55;96.00
19520;BME280;9904;52.246;20.898;2023-11-19T09:25:20;100100.81;;;0.58;93.65
19520;BME280;9904;52.246;20.898;2023-11-19T09:27:47;100102.88;;;0.39;95.13
19520;BME280;9904;52.246;20.898;2023-11-19T09:30:13;100109.25;;;0.20;96.41
19520;BME280;9904;52.246;20.898;2023-11-19T09:32:40;100096.31;;;0.14;97.65
19520;BME280;9904;52.246;20.898;2023-11-19T09:35:07;100088.91;;;0.19;97.58
19520;BME280;9904;52.246;20.898;2023-11-19T09:37:35;100091.00;;;0.14;98.37
19520;BME280;9904;52.246;20.898;2023-11-19T09:40:01;100086.38;;;0.32;98.20
19520;BME280;9904;52.246;20.898;2023-11-19T09:42:28;100084.81;;;0.44;96.35
19520;BME280;9904;52.246;20.898;2023-11-19T09:44:56;100084.63;;;0.47;96.48
19520;BME280;9904;52.246;20.898;2023-11-19T09:47:25;100087.31;;;0.47;96.24
19520;BME280;9904;52.246;20.898;2023-11-19T09:49:54;100080.69;;;0.38;97.29
19520;BME280;9904;52.246;20.898;2023-11-19T09:52:24;100075.88;;;0.45;95.79
19520;BME280;9904;52.246;20.898;2023-11-19T09:54:51;100067.84;;;0.30;95.64
19520;BME280;9904;52.246;20.898;2023-11-19T09:57:19;100072.13;;;0.33;95.85
19520;BME280;9904;52.246;20.898;2023-11-19T09:59:46;100068.59;;;0.18;96.26
19520;BME280;9904;52.246;20.898;2023-11-19T10:02:14;100056.13;;;0.19;96.92
19520;BME280;9904;52.246;20.898;2023-11-19T10:04:42;100056.75;;;0.08;97.87
19520;BME280;9904;52.246;20.898;2023-11-19T10:07:10;100047.88;;;0.23;97.15
19520;BME280;9904;52.246;20.898;2023-11-19T10:09:37;100047.88;;;0.23;97.54
19520;BME280;9904;52.246;20.898;2023-11-19T10:12:03;100038.75;;;0.27;97.52
19520;BME280;9904;52.246;20.898;2023-11-19T10:14:31;100031.44;;;0.31;98.87
19520;BME280;9904;52.246;20.898;2023-11-19T10:16:58;100029.00;;;0.12;99.85
19520;BME280;9904;52.246;20.898;2023-11-19T10:19:25;100027.66;;;0.35;99.29
19520;BME280;9904;52.246;20.898;2023-11-19T10:21:52;100020.63;;;0.49;98.48
19520;BME280;9904;52.246;20.898;2023-11-19T10:24:31;100021.16;;;0.39;97.41
19520;BME280;9904;52.246;20.898;2023-11-19T10:27:00;100020.13;;;0.42;97.68
19520;BME280;9904;52.246;20.898;2023-11-19T10:29:29;100009.28;;;0.30;97.95
19520;BME280;9904;52.246;20.898;2023-11-19T10:31:57;100007.13;;;0.07;99.18
19520;BME280;9904;52.246;20.898;2023-11-19T10:34:44;100004.06;;;0.29;99.56
19520;BME280;9904;52.246;20.898;2023-11-19T10:37:29;99998.81;;;0.27;99.41
19520;BME280;9904;52.246;20.898;2023-11-19T10:39:58;100002.75;;;0.36;98.75
19520;BME280;9904;52.246;20.898;2023-11-19T10:42:25;99987.22;;;0.28;98.14
19520;BME280;9904;52.246;20.898;2023-11-19T10:44:51;99988.66;;;0.49;97.47
19520;BME280;9904;52.246;20.898;2023-11-19T10:47:19;99978.41;;;0.42;96.71
19520;BME280;9904;52.246;20.898;2023-11-19T10:50:04;99965.75;;;0.31;97.47
19520;BME280;9904;52.246;20.898;2023-11-19T10:52:33;99962.03;;;0.34;97.98
19520;BME280;9904;52.246;20.898;2023-11-19T10:55:00;99962.81;;;0.36;96.97
19520;BME280;9904;52.246;20.898;2023-11-19T10:57:30;99956.97;;;0.29;97.96
19520;BME280;9904;52.246;20.898;2023-11-19T11:00:01;99951.16;;;0.23;98.87
19520;BME280;9904;52.246;20.898;2023-11-19T11:02:30;99945.50;;;0.43;98.25
19520;BME280;9904;52.246;20.898;2023-11-19T11:05:01;99934.34;;;0.37;96.87
19520;BME280;9904;52.246;20.898;2023-11-19T11:07:29;99920.28;;;0.35;97.35
19520;BME280;9904;52.246;20.898;2023-11-19T11:10:07;99920.94;;;0.24;98.18
19520;BME280;9904;52.246;20.898;2023-11-19T11:12:37;99917.72;;;0.33;98.48
19520;BME280;9904;52.246;20.898;2023-11-19T11:15:11;99913.34;;;0.32;98.22
19520;BME280;9904;52.246;20.898;2023-11-19T11:17:39;99904.50;;;0.31;98.14
19520;BME280;9904;52.246;20.898;2023-11-19T11:20:08;99902.00;;;0.28;98.30
19520;BME280;9904;52.246;20.898;2023-11-19T11:22:50;99900.59;;;0.23;98.61
19520;BME280;9904;52.246;20.898;2023-11-19T11:25:44;99884.34;;;0.27;97.80
19520;BME280;9904;52.246;20.898;2023-11-19T11:28:52;99879.66;;;0.17;98.47
19520;BME280;9904;52.246;20.898;2023-11-19T11:39:36;99873.78;;;0.26;98.77
19520;BME280;9904;52.246;20.898;2023-11-19T11:45:06;99861.22;;;0.42;98.11
19520;BME280;9904;52.246;20.898;2023-11-19T11:55:27;99837.06;;;0.31;99.51
19520;BME280;9904;52.246;20.898;2023-11-19T11:57:55;99827.66;;;0.40;98.76
19520;BME280;9904;52.246;20.898;2023-11-19T12:00:30;99824.41;;;0.35;98.81
19520;BME280;9904;52.246;20.898;2023-11-19T12:02:59;99813.13;;;0.31;99.09
19520;BME280;9904;52.246;20.898;2023-11-19T12:05:27;99811.78;;;0.24;99.67
19520;BME280;9904;52.246;20.898;2023-11-19T12:08:04;99804.69;;;0.24;100.00
19520;BME280;9904;52.246;20.898;2023-11-19T12:10:45;99796.69;;;0.24;100.00
19520;BME280;9904;52.246;20.898;2023-11-19T12:13:14;99785.53;;;0.32;100.00
19520;BME280;9904;52.246;20.898;2023-11-19T12:18:27;99784.19;;;0.39;100.00
19520;BME280;9904;52.246;20.898;2023-11-19T12:20:57;99782.44;;;0.25;100.00
19520;BME280;9904;52.246;20.898;2023-11-19T12:23:28;99776.22;;;0.25;100.00
19520;BME280;9904;52.246;20.898;2023-11-19T12:25:59;99775.94;;;0.29;100.00
19520;BME280;9904;52.246;20.898;2023-11-19T12:28:25;99770.50;;;0.31;100.00
19520;BME280;9904;52.246;20.898;2023-11-19T12:31:07;99766.53;;;0.24;100.00
19520;BME280;9904;52.246;20.898;2023-11-19T12:33:35;99769.78;;;0.29;100.00
19520;BME280;9904;52.246;20.898;2023-11-19T12:36:03;99764.72;;;0.39;99.98
19520;BME280;9904;52.246;20.898;2023-11-19T12:38:32;99763.09;;;0.36;99.84
19520;BME280;9904;52.246;20.898;2023-11-19T12:41:09;99764.34;;;0.30;100.00
19520;BME280;9904;52.246;20.898;2023-11-19T12:43:39;99755.59;;;0.28;99.97
19520;BME280;9904;52.246;20.898;2023-11-19T12:46:30;99757.78;;;0.36;99.96
19520;BME280;9904;52.246;20.898;2023-11-19T12:48:56;99758.84;;;0.34;99.90
19520;BME280;9904;52.246;20.898;2023-11-19T12:51:30;99762.34;;;0.34;100.00
19520;BME280;9904;52.246;20.898;2023-11-19T12:53:59;99752.75;;;0.31;100.00
19520;BME280;9904;52.246;20.898;2023-11-19T12:56:26;99755.34;;;0.19;100.00
19520;BME280;9904;52.246;20.898;2023-11-19T12:58:56;99756.66;;;0.26;100.00
19520;BME280;9904;52.246;20.898;2023-11-19T13:01:22;99749.44;;;0.28;99.68
19520;BME280;9904;52.246;20.898;2023-11-19T13:03:50;99756.19;;;0.34;99.92
19520;BME280;9904;52.246;20.898;2023-11-19T13:06:18;99743.41;;;0.39;98.90
19520;BME280;9904;52.246;20.898;2023-11-19T13:08:48;99729.94;;;0.27;99.61
19520;BME280;9904;52.246;20.898;2023-11-19T13:11:32;99732.03;;;0.22;100.00
19520;BME280;9904;52.246;20.898;2023-11-19T13:14:03;99721.97;;;0.13;100.00
19520;BME280;9904;52.246;20.898;2023-11-19T13:16:31;99717.16;;;0.05;100.00